Jamestown, OH (45335)

11:43 AM EDT on September 05, 2015 (GMT -0400)
KOHJAMES2 | | Change Station
CLOSE
Current Station
Personal Weather Station
Location: Jamestown, OH
Elevation: 1093 ft
Nearby Weather Stations

Elev 1093 ft 39.61 °N, 83.71 °W | Updated 2 seconds ago

Clear
Clear
83.2 °F
Feels Like 85 °F
N
0.0
Wind Variable Wind from East
Gusts 0.0 mph

Today
High -- | Low -- °F
--% Chance of Precip.
Yesterday
High -- | Low -- °F
Precip. -- in
7:06 AM 8:00 PM
Waning Gibbous, 47% visible
Pressure 30.16 in
Visibility 10.0 miles
Clouds Clear
Heat Index 85 °F
Dew Point 65 °F
Humidity 55%
Rainfall 0.00 in
Snow Depth Not available.
UV 3.9 out of 12
Pollen 10.20 out of 12
Air Quality Not available.
Flu Activity Not available.
METAR KILN 051454Z AUTO 11003KT 10SM CLR 26/18 A3018 RMK AO2 SLP211 T02610183 51008
Pressure 30.16 in
Visibility 10.0 miles
Clouds Clear
Heat Index 85 °F
Dew Point 65 °F
Humidity 55%
Rainfall 0.00 in
Snow Depth Not available.
UV 3.9 out of 12
Pollen 10.20 out of 12
Air Quality Not available.
Flu Activity Not available.
METAR KILN 051454Z AUTO 11003KT 10SM CLR 26/18 A3018 RMK AO2 SLP211 T02610183 51008

10-Day Weather Forecast

×

Almanac

Astronomy

Sep. 05, 2015 Rise Set
Actual Time
Civil Twilight
Nautical Twilight
Astronomical Twilight
Moon
Length of Visible Light
Length of Day
Tomorrow will be .
, % of the Moon is Illuminated

Today's Extremes

State Highs State Lows

Community

WunderPhotos

Upload Photos

1,852,483 photos uploaded!

WunderBlogs® & News

Nearby

Air Quality

  Air Quality AQ Index Pollutant
Not available.

Snow Depth

Station Depth Elevation

Earthquake Activity

City Distance Mag. Time & Date
Minimum magnitude displayed is 2.5.

Coastal Water Temperatures

Place Temperature

Stations

Nearby Weather Stations

Station Location Temp. Windchill Dew Point Humidity Wind Precip. Elev Updated Type